sensor_id;sensor_type;location;lat;lon;timestamp;temperature;humidity
29501;DHT22;16450;50.288;10.966;2023-04-25T00:02:03;8.50;99.60
29501;DHT22;16450;50.288;10.966;2023-04-25T00:05:05;8.40;99.60
29501;DHT22;16450;50.288;10.966;2023-04-25T00:08:08;8.50;99.60
29501;DHT22;16450;50.288;10.966;2023-04-25T00:11:10;8.50;99.70
29501;DHT22;16450;50.288;10.966;2023-04-25T00:14:12;8.40;99.60
29501;DHT22;16450;50.288;10.966;2023-04-25T00:17:13;8.50;99.70
29501;DHT22;16450;50.288;10.966;2023-04-25T00:20:16;8.40;99.70
29501;DHT22;16450;50.288;10.966;2023-04-25T00:23:18;8.50;99.70
29501;DHT22;16450;50.288;10.966;2023-04-25T00:26:20;8.40;99.60
29501;DHT22;16450;50.288;10.966;2023-04-25T00:29:22;8.40;99.60
29501;DHT22;16450;50.288;10.966;2023-04-25T00:32:24;8.40;99.60
29501;DHT22;16450;50.288;10.966;2023-04-25T00:35:26;8.40;99.60
29501;DHT22;16450;50.288;10.966;2023-04-25T00:38:28;8.40;99.50
29501;DHT22;16450;50.288;10.966;2023-04-25T00:41:30;8.40;99.50
29501;DHT22;16450;50.288;10.966;2023-04-25T00:44:33;8.40;99.50
29501;DHT22;16450;50.288;10.966;2023-04-25T00:47:37;8.30;99.40
29501;DHT22;16450;50.288;10.966;2023-04-25T00:50:39;8.40;99.50
29501;DHT22;16450;50.288;10.966;2023-04-25T00:53:42;8.30;99.50
29501;DHT22;16450;50.288;10.966;2023-04-25T00:56:44;8.30;99.60
29501;DHT22;16450;50.288;10.966;2023-04-25T00:59:47;8.30;99.60
29501;DHT22;16450;50.288;10.966;2023-04-25T01:02:49;8.30;99.60
29501;DHT22;16450;50.288;10.966;2023-04-25T01:05:52;8.30;99.60
29501;DHT22;16450;50.288;10.966;2023-04-25T01:08:54;8.20;99.60
29501;DHT22;16450;50.288;10.966;2023-04-25T01:11:56;8.20;99.70
29501;DHT22;16450;50.288;10.966;2023-04-25T01:14:59;8.20;99.70
29501;DHT22;16450;50.288;10.966;2023-04-25T01:18:01;8.20;99.80
29501;DHT22;16450;50.288;10.966;2023-04-25T01:21:10;8.20;99.80
29501;DHT22;16450;50.288;10.966;2023-04-25T01:24:13;8.20;99.80
29501;DHT22;16450;50.288;10.966;2023-04-25T01:27:15;8.20;99.90
29501;DHT22;16450;50.288;10.966;2023-04-25T01:30:17;8.20;99.90
29501;DHT22;16450;50.288;10.966;2023-04-25T01:33:21;8.20;99.90
29501;DHT22;16450;50.288;10.966;2023-04-25T01:36:23;8.20;99.90
29501;DHT22;16450;50.288;10.966;2023-04-25T01:39:25;8.10;99.90
29501;DHT22;16450;50.288;10.966;2023-04-25T01:42:27;8.20;99.90
29501;DHT22;16450;50.288;10.966;2023-04-25T01:45:29;8.10;99.90
29501;DHT22;16450;50.288;10.966;2023-04-25T01:48:32;8.20;99.90
29501;DHT22;16450;50.288;10.966;2023-04-25T01:51:34;8.10;99.90
29501;DHT22;16450;50.288;10.966;2023-04-25T01:54:36;8.20;99.90
29501;DHT22;16450;50.288;10.966;2023-04-25T01:57:38;8.20;99.90
29501;DHT22;16450;50.288;10.966;2023-04-25T02:00:40;8.10;99.90
29501;DHT22;16450;50.288;10.966;2023-04-25T02:03:43;8.10;99.90
29501;DHT22;16450;50.288;10.966;2023-04-25T02:06:45;8.10;99.90
29501;DHT22;16450;50.288;10.966;2023-04-25T02:09:47;8.10;99.90
29501;DHT22;16450;50.288;10.966;2023-04-25T02:12:49;8.10;99.90
29501;DHT22;16450;50.288;10.966;2023-04-25T02:15:51;8.10;99.90
29501;DHT22;16450;50.288;10.966;2023-04-25T02:18:53;8.10;99.90
29501;DHT22;16450;50.288;10.966;2023-04-25T02:21:55;8.10;99.90
29501;DHT22;16450;50.288;10.966;2023-04-25T02:24:58;8.10;99.90
29501;DHT22;16450;50.288;10.966;2023-04-25T02:28:00;8.10;99.90
29501;DHT22;16450;50.288;10.966;2023-04-25T02:31:02;8.10;99.90
29501;DHT22;16450;50.288;10.966;2023-04-25T02:34:04;8.10;99.90
29501;DHT22;16450;50.288;10.966;2023-04-25T02:37:06;8.10;99.90
29501;DHT22;16450;50.288;10.966;2023-04-25T02:40:09;8.10;99.90
29501;DHT22;16450;50.288;10.966;2023-04-25T02:43:11;8.10;99.90
29501;DHT22;16450;50.288;10.966;2023-04-25T02:46:12;8.10;99.90
29501;DHT22;16450;50.288;10.966;2023-04-25T02:49:14;8.10;99.90
29501;DHT22;16450;50.288;10.966;2023-04-25T02:52:16;8.10;99.90
29501;DHT22;16450;50.288;10.966;2023-04-25T02:55:18;8.10;99.90
29501;DHT22;16450;50.288;10.966;2023-04-25T02:58:21;8.00;99.90
29501;DHT22;16450;50.288;10.966;2023-04-25T03:01:23;8.00;99.90
29501;DHT22;16450;50.288;10.966;2023-04-25T03:04:25;7.90;99.90
29501;DHT22;16450;50.288;10.966;2023-04-25T03:07:27;7.90;99.90
29501;DHT22;16450;50.288;10.966;2023-04-25T03:10:29;7.90;99.90
29501;DHT22;16450;50.288;10.966;2023-04-25T03:13:31;7.90;99.90
29501;DHT22;16450;50.288;10.966;2023-04-25T03:16:34;7.90;99.90
29501;DHT22;16450;50.288;10.966;2023-04-25T03:19:37;7.80;99.90
29501;DHT22;16450;50.288;10.966;2023-04-25T03:22:39;7.80;99.90
29501;DHT22;16450;50.288;10.966;2023-04-25T03:25:41;7.90;99.90
29501;DHT22;16450;50.288;10.966;2023-04-25T03:28:43;7.80;99.90
29501;DHT22;16450;50.288;10.966;2023-04-25T03:31:44;7.70;99.90
29501;DHT22;16450;50.288;10.966;2023-04-25T03:34:47;7.60;99.90
29501;DHT22;16450;50.288;10.966;2023-04-25T03:37:49;7.50;99.90
29501;DHT22;16450;50.288;10.966;2023-04-25T03:40:52;7.50;99.90
29501;DHT22;16450;50.288;10.966;2023-04-25T03:43:54;7.40;99.90
29501;DHT22;16450;50.288;10.966;2023-04-25T03:46:56;7.30;99.90
29501;DHT22;16450;50.288;10.966;2023-04-25T03:49:58;7.30;99.90
29501;DHT22;16450;50.288;10.966;2023-04-25T03:53:02;7.20;99.90
29501;DHT22;16450;50.288;10.966;2023-04-25T03:56:04;7.20;99.90
29501;DHT22;16450;50.288;10.966;2023-04-25T03:59:06;7.20;99.90
29501;DHT22;16450;50.288;10.966;2023-04-25T04:02:09;7.20;99.90
29501;DHT22;16450;50.288;10.966;2023-04-25T04:05:11;7.20;99.90
29501;DHT22;16450;50.288;10.966;2023-04-25T04:08:14;7.20;99.90
29501;DHT22;16450;50.288;10.966;2023-04-25T04:11:16;7.20;99.90
29501;DHT22;16450;50.288;10.966;2023-04-25T04:14:20;7.20;99.90
29501;DHT22;16450;50.288;10.966;2023-04-25T04:17:22;7.10;99.90
29501;DHT22;16450;50.288;10.966;2023-04-25T04:20:24;7.20;99.90
29501;DHT22;16450;50.288;10.966;2023-04-25T04:23:26;7.20;99.90
29501;DHT22;16450;50.288;10.966;2023-04-25T04:26:29;7.20;99.90
29501;DHT22;16450;50.288;10.966;2023-04-25T04:29:33;7.20;99.90
29501;DHT22;16450;50.288;10.966;2023-04-25T04:32:36;7.20;99.90
29501;DHT22;16450;50.288;10.966;2023-04-25T04:35:38;7.20;99.90
29501;DHT22;16450;50.288;10.966;2023-04-25T04:38:40;7.10;99.90
29501;DHT22;16450;50.288;10.966;2023-04-25T04:41:42;7.20;99.90
29501;DHT22;16450;50.288;10.966;2023-04-25T04:44:44;7.10;99.90
29501;DHT22;16450;50.288;10.966;2023-04-25T04:47:46;7.10;99.90
29501;DHT22;16450;50.288;10.966;2023-04-25T04:50:50;7.10;99.90
29501;DHT22;16450;50.288;10.966;2023-04-25T04:53:52;7.10;99.90
29501;DHT22;16450;50.288;10.966;2023-04-25T04:56:54;7.10;99.90
29501;DHT22;16450;50.288;10.966;2023-04-25T04:59:59;7.20;99.90
29501;DHT22;16450;50.288;10.966;2023-04-25T05:03:01;7.20;99.90
29501;DHT22;16450;50.288;10.966;2023-04-25T05:06:03;7.20;99.90
29501;DHT22;16450;50.288;10.966;2023-04-25T05:09:05;7.20;99.90
29501;DHT22;16450;50.288;10.966;2023-04-25T05:12:07;7.20;99.90
29501;DHT22;16450;50.288;10.966;2023-04-25T05:15:09;7.20;99.90
29501;DHT22;16450;50.288;10.966;2023-04-25T05:18:11;7.20;99.90
29501;DHT22;16450;50.288;10.966;2023-04-25T05:21:13;7.20;99.90
29501;DHT22;16450;50.288;10.966;2023-04-25T05:24:16;7.20;99.90
29501;DHT22;16450;50.288;10.966;2023-04-25T05:27:18;7.30;99.90
29501;DHT22;16450;50.288;10.966;2023-04-25T05:30:20;7.30;99.90
29501;DHT22;16450;50.288;10.966;2023-04-25T05:33:22;7.30;99.90
29501;DHT22;16450;50.288;10.966;2023-04-25T05:36:24;7.40;99.90
29501;DHT22;16450;50.288;10.966;2023-04-25T05:39:25;7.50;99.90
29501;DHT22;16450;50.288;10.966;2023-04-25T05:42:27;7.50;99.90
29501;DHT22;16450;50.288;10.966;2023-04-25T05:45:29;7.60;99.90
29501;DHT22;16450;50.288;10.966;2023-04-25T05:48:31;7.70;99.90
29501;DHT22;16450;50.288;10.966;2023-04-25T05:51:33;7.80;99.90
29501;DHT22;16450;50.288;10.966;2023-04-25T05:54:35;7.90;99.90
29501;DHT22;16450;50.288;10.966;2023-04-25T05:57:37;8.00;99.90
29501;DHT22;16450;50.288;10.966;2023-04-25T06:00:42;8.10;99.90
29501;DHT22;16450;50.288;10.966;2023-04-25T06:03:44;8.20;99.90
29501;DHT22;16450;50.288;10.966;2023-04-25T06:06:46;8.20;99.90
29501;DHT22;16450;50.288;10.966;2023-04-25T06:09:48;8.40;99.90
29501;DHT22;16450;50.288;10.966;2023-04-25T06:12:50;8.40;99.90
29501;DHT22;16450;50.288;10.966;2023-04-25T06:15:52;8.50;99.90
29501;DHT22;16450;50.288;10.966;2023-04-25T06:18:54;8.60;99.90
29501;DHT22;16450;50.288;10.966;2023-04-25T06:21:56;8.60;99.90
29501;DHT22;16450;50.288;10.966;2023-04-25T06:24:58;8.70;99.90
29501;DHT22;16450;50.288;10.966;2023-04-25T06:28:02;8.60;99.90
29501;DHT22;16450;50.288;10.966;2023-04-25T06:31:03;8.60;99.90
29501;DHT22;16450;50.288;10.966;2023-04-25T06:34:06;8.60;99.90
29501;DHT22;16450;50.288;10.966;2023-04-25T06:37:08;8.50;99.90
29501;DHT22;16450;50.288;10.966;2023-04-25T06:40:10;8.60;99.90
29501;DHT22;16450;50.288;10.966;2023-04-25T06:43:12;8.60;99.90
29501;DHT22;16450;50.288;10.966;2023-04-25T06:46:14;8.70;99.90
29501;DHT22;16450;50.288;10.966;2023-04-25T06:49:16;8.80;99.90
29501;DHT22;16450;50.288;10.966;2023-04-25T06:52:18;8.80;99.90
29501;DHT22;16450;50.288;10.966;2023-04-25T06:55:20;8.90;99.90
29501;DHT22;16450;50.288;10.966;2023-04-25T06:58:22;8.90;99.90
29501;DHT22;16450;50.288;10.966;2023-04-25T07:01:24;8.90;99.90
29501;DHT22;16450;50.288;10.966;2023-04-25T07:04:26;8.90;99.90
29501;DHT22;16450;50.288;10.966;2023-04-25T07:07:29;8.90;99.90
29501;DHT22;16450;50.288;10.966;2023-04-25T07:10:31;8.90;99.90
29501;DHT22;16450;50.288;10.966;2023-04-25T07:13:33;8.90;99.90
29501;DHT22;16450;50.288;10.966;2023-04-25T07:16:35;8.80;99.90
29501;DHT22;16450;50.288;10.966;2023-04-25T07:19:37;8.80;99.90
29501;DHT22;16450;50.288;10.966;2023-04-25T07:22:41;8.80;99.90
29501;DHT22;16450;50.288;10.966;2023-04-25T07:25:43;8.80;99.90
29501;DHT22;16450;50.288;10.966;2023-04-25T07:28:45;8.80;99.90
29501;DHT22;16450;50.288;10.966;2023-04-25T07:31:51;8.70;99.90
29501;DHT22;16450;50.288;10.966;2023-04-25T07:34:54;8.70;99.90
29501;DHT22;16450;50.288;10.966;2023-04-25T07:37:56;8.70;99.90
29501;DHT22;16450;50.288;10.966;2023-04-25T07:40:58;8.70;99.90
29501;DHT22;16450;50.288;10.966;2023-04-25T07:44:00;8.80;99.90
29501;DHT22;16450;50.288;10.966;2023-04-25T07:47:02;9.10;99.90
29501;DHT22;16450;50.288;10.966;2023-04-25T07:50:05;9.40;99.90
29501;DHT22;16450;50.288;10.966;2023-04-25T07:53:07;9.80;99.90
29501;DHT22;16450;50.288;10.966;2023-04-25T07:56:10;10.10;99.90
29501;DHT22;16450;50.288;10.966;2023-04-25T07:59:12;10.20;99.90
29501;DHT22;16450;50.288;10.966;2023-04-25T08:02:14;10.20;99.90
29501;DHT22;16450;50.288;10.966;2023-04-25T08:05:16;10.40;99.90
29501;DHT22;16450;50.288;10.966;2023-04-25T08:08:22;10.70;99.90
29501;DHT22;16450;50.288;10.966;2023-04-25T08:11:24;11.00;99.90
29501;DHT22;16450;50.288;10.966;2023-04-25T08:14:26;11.10;99.90
29501;DHT22;16450;50.288;10.966;2023-04-25T08:17:28;11.10;99.90
29501;DHT22;16450;50.288;10.966;2023-04-25T08:20:30;11.20;99.90
29501;DHT22;16450;50.288;10.966;2023-04-25T08:23:32;11.20;99.90
29501;DHT22;16450;50.288;10.966;2023-04-25T08:26:34;11.20;99.30
29501;DHT22;16450;50.288;10.966;2023-04-25T08:30:13;11.00;99.10
29501;DHT22;16450;50.288;10.966;2023-04-25T08:33:15;10.90;97.10
29501;DHT22;16450;50.288;10.966;2023-04-25T08:36:18;10.90;99.30
29501;DHT22;16450;50.288;10.966;2023-04-25T08:39:39;10.80;99.00
29501;DHT22;16450;50.288;10.966;2023-04-25T08:42:41;10.70;98.60
29501;DHT22;16450;50.288;10.966;2023-04-25T08:45:44;10.60;98.40
29501;DHT22;16450;50.288;10.966;2023-04-25T08:48:46;10.50;98.50
29501;DHT22;16450;50.288;10.966;2023-04-25T08:52:02;10.50;99.90
29501;DHT22;16450;50.288;10.966;2023-04-25T08:55:07;10.70;99.30
29501;DHT22;16450;50.288;10.966;2023-04-25T08:58:11;10.80;99.90
29501;DHT22;16450;50.288;10.966;2023-04-25T09:01:12;11.00;99.90
29501;DHT22;16450;50.288;10.966;2023-04-25T09:04:15;11.10;99.90
29501;DHT22;16450;50.288;10.966;2023-04-25T09:07:17;11.30;99.90
29501;DHT22;16450;50.288;10.966;2023-04-25T09:10:22;11.60;99.90
29501;DHT22;16450;50.288;10.966;2023-04-25T09:13:26;11.70;99.90
29501;DHT22;16450;50.288;10.966;2023-04-25T09:16:28;11.80;98.90
29501;DHT22;16450;50.288;10.966;2023-04-25T09:19:35;11.80;98.60
29501;DHT22;16450;50.288;10.966;2023-04-25T09:22:45;11.80;97.20
29501;DHT22;16450;50.288;10.966;2023-04-25T09:25:49;11.60;96.90
29501;DHT22;16450;50.288;10.966;2023-04-25T09:29:07;11.50;97.30
29501;DHT22;16450;50.288;10.966;2023-04-25T09:32:18;11.40;96.40
29501;DHT22;16450;50.288;10.966;2023-04-25T09:35:24;11.40;98.50
29501;DHT22;16450;50.288;10.966;2023-04-25T09:38:45;11.50;99.10
29501;DHT22;16450;50.288;10.966;2023-04-25T09:41:47;11.60;98.00
29501;DHT22;16450;50.288;10.966;2023-04-25T09:44:49;11.90;99.90
29501;DHT22;16450;50.288;10.966;2023-04-25T09:47:55;12.10;99.90
29501;DHT22;16450;50.288;10.966;2023-04-25T09:51:10;12.30;99.60
29501;DHT22;16450;50.288;10.966;2023-04-25T09:54:13;12.40;97.80
29501;DHT22;16450;50.288;10.966;2023-04-25T09:57:19;12.50;98.60
29501;DHT22;16450;50.288;10.966;2023-04-25T10:00:21;12.50;97.50
29501;DHT22;16450;50.288;10.966;2023-04-25T10:03:24;12.40;97.70
29501;DHT22;16450;50.288;10.966;2023-04-25T10:06:27;12.30;97.40
29501;DHT22;16450;50.288;10.966;2023-04-25T10:09:32;12.20;97.50
29501;DHT22;16450;50.288;10.966;2023-04-25T10:12:37;12.20;97.60
29501;DHT22;16450;50.288;10.966;2023-04-25T10:16:00;12.10;97.70
29501;DHT22;16450;50.288;10.966;2023-04-25T10:19:04;12.00;95.40
29501;DHT22;16450;50.288;10.966;2023-04-25T10:25:55;11.80;96.20
29501;DHT22;16450;50.288;10.966;2023-04-25T10:29:00;11.60;95.30
29501;DHT22;16450;50.288;10.966;2023-04-25T10:32:02;11.50;96.70
29501;DHT22;16450;50.288;10.966;2023-04-25T10:35:19;11.40;96.90
29501;DHT22;16450;50.288;10.966;2023-04-25T10:38:21;11.30;95.30
29501;DHT22;16450;50.288;10.966;2023-04-25T10:41:23;11.20;96.80
29501;DHT22;16450;50.288;10.966;2023-04-25T10:44:29;11.10;97.10
29501;DHT22;16450;50.288;10.966;2023-04-25T10:47:35;11.00;96.30
29501;DHT22;16450;50.288;10.966;2023-04-25T10:50:38;10.90;96.50
29501;DHT22;16450;50.288;10.966;2023-04-25T10:53:41;10.80;97.50
29501;DHT22;16450;50.288;10.966;2023-04-25T10:56:45;10.80;97.70
29501;DHT22;16450;50.288;10.966;2023-04-25T10:59:46;10.90;97.90
29501;DHT22;16450;50.288;10.966;2023-04-25T11:02:52;10.90;98.20
29501;DHT22;16450;50.288;10.966;2023-04-25T11:05:54;11.00;97.60
29501;DHT22;16450;50.288;10.966;2023-04-25T11:09:01;11.00;98.00
29501;DHT22;16450;50.288;10.966;2023-04-25T11:12:04;11.10;97.70
29501;DHT22;16450;50.288;10.966;2023-04-25T11:15:07;11.20;98.10
29501;DHT22;16450;50.288;10.966;2023-04-25T11:18:09;11.20;98.00
29501;DHT22;16450;50.288;10.966;2023-04-25T11:21:11;11.30;98.20
29501;DHT22;16450;50.288;10.966;2023-04-25T11:24:16;11.40;98.20
29501;DHT22;16450;50.288;10.966;2023-04-25T11:27:18;11.50;97.90
29501;DHT22;16450;50.288;10.966;2023-04-25T11:30:21;11.60;98.00
29501;DHT22;16450;50.288;10.966;2023-04-25T11:33:24;11.70;97.70
29501;DHT22;16450;50.288;10.966;2023-04-25T11:36:26;11.80;97.70
29501;DHT22;16450;50.288;10.966;2023-04-25T11:39:29;11.80;97.50
29501;DHT22;16450;50.288;10.966;2023-04-25T11:42:31;11.90;97.60
29501;DHT22;16450;50.288;10.966;2023-04-25T11:45:33;11.90;97.60
29501;DHT22;16450;50.288;10.966;2023-04-25T11:48:45;12.00;97.80
29501;DHT22;16450;50.288;10.966;2023-04-25T11:51:48;12.20;96.40
29501;DHT22;16450;50.288;10.966;2023-04-25T11:54:50;12.30;98.00
29501;DHT22;16450;50.288;10.966;2023-04-25T11:57:52;12.40;98.00
29501;DHT22;16450;50.288;10.966;2023-04-25T12:00:54;12.50;98.00
29501;DHT22;16450;50.288;10.966;2023-04-25T12:04:14;12.60;97.40
29501;DHT22;16450;50.288;10.966;2023-04-25T12:07:16;12.80;95.10
29501;DHT22;16450;50.288;10.966;2023-04-25T12:10:21;12.70;96.90
29501;DHT22;16450;50.288;10.966;2023-04-25T12:13:26;12.60;95.80
29501;DHT22;16450;50.288;10.966;2023-04-25T12:16:29;12.50;95.20
29501;DHT22;16450;50.288;10.966;2023-04-25T12:19:37;12.40;95.90
29501;DHT22;16450;50.288;10.966;2023-04-25T12:22:43;12.30;94.80
29501;DHT22;16450;50.288;10.966;2023-04-25T12:25:48;12.30;95.80
29501;DHT22;16450;50.288;10.966;2023-04-25T12:28:51;12.20;96.50
29501;DHT22;16450;50.288;10.966;2023-04-25T12:31:55;12.10;95.90
29501;DHT22;16450;50.288;10.966;2023-04-25T12:34:57;12.10;95.50
29501;DHT22;16450;50.288;10.966;2023-04-25T12:37:59;12.10;95.90
29501;DHT22;16450;50.288;10.966;2023-04-25T12:41:02;12.10;96.10
29501;DHT22;16450;50.288;10.966;2023-04-25T12:44:04;12.10;96.30
29501;DHT22;16450;50.288;10.966;2023-04-25T12:47:06;12.20;96.40
29501;DHT22;16450;50.288;10.966;2023-04-25T12:50:09;12.20;96.20
29501;DHT22;16450;50.288;10.966;2023-04-25T12:53:11;12.30;95.80
29501;DHT22;16450;50.288;10.966;2023-04-25T12:56:13;12.30;95.40
29501;DHT22;16450;50.288;10.966;2023-04-25T12:59:15;12.30;94.90
29501;DHT22;16450;50.288;10.966;2023-04-25T13:02:17;12.20;94.50
29501;DHT22;16450;50.288;10.966;2023-04-25T13:05:19;12.00;94.10
29501;DHT22;16450;50.288;10.966;2023-04-25T13:08:21;11.90;93.80
29501;DHT22;16450;50.288;10.966;2023-04-25T13:11:24;11.70;94.10
29501;DHT22;16450;50.288;10.966;2023-04-25T13:14:26;11.60;93.90
29501;DHT22;16450;50.288;10.966;2023-04-25T13:17:28;11.50;94.80
29501;DHT22;16450;50.288;10.966;2023-04-25T13:20:30;11.50;94.80
29501;DHT22;16450;50.288;10.966;2023-04-25T13:23:32;11.50;94.60
29501;DHT22;16450;50.288;10.966;2023-04-25T13:26:34;11.40;94.40
29501;DHT22;16450;50.288;10.966;2023-04-25T13:29:36;11.40;94.40
29501;DHT22;16450;50.288;10.966;2023-04-25T13:32:40;11.40;94.20
29501;DHT22;16450;50.288;10.966;2023-04-25T13:35:42;11.30;93.90
29501;DHT22;16450;50.288;10.966;2023-04-25T13:38:44;11.20;94.10
29501;DHT22;16450;50.288;10.966;2023-04-25T13:41:49;11.10;94.10
29501;DHT22;16450;50.288;10.966;2023-04-25T13:44:51;11.10;93.90
29501;DHT22;16450;50.288;10.966;2023-04-25T13:47:53;11.00;94.20
29501;DHT22;16450;50.288;10.966;2023-04-25T13:50:54;11.00;94.50
29501;DHT22;16450;50.288;10.966;2023-04-25T13:53:57;11.00;94.40
29501;DHT22;16450;50.288;10.966;2023-04-25T13:56:59;10.90;94.50
29501;DHT22;16450;50.288;10.966;2023-04-25T14:00:04;11.00;94.80
29501;DHT22;16450;50.288;10.966;2023-04-25T14:03:10;11.00;94.60
29501;DHT22;16450;50.288;10.966;2023-04-25T14:06:12;11.10;95.40
29501;DHT22;16450;50.288;10.966;2023-04-25T14:09:15;11.10;95.80
29501;DHT22;16450;50.288;10.966;2023-04-25T14:12:17;11.30;95.70
29501;DHT22;16450;50.288;10.966;2023-04-25T14:15:19;11.40;95.40
29501;DHT22;16450;50.288;10.966;2023-04-25T14:18:22;11.50;94.90
29501;DHT22;16450;50.288;10.966;2023-04-25T14:21:23;11.40;94.60
29501;DHT22;16450;50.288;10.966;2023-04-25T14:24:25;11.50;94.40
29501;DHT22;16450;50.288;10.966;2023-04-25T14:27:27;11.50;94.50
29501;DHT22;16450;50.288;10.966;2023-04-25T14:30:30;11.40;94.20
29501;DHT22;16450;50.288;10.966;2023-04-25T14:33:32;11.40;94.10
29501;DHT22;16450;50.288;10.966;2023-04-25T14:36:35;11.30;94.20
29501;DHT22;16450;50.288;10.966;2023-04-25T14:39:37;11.30;94.70
29501;DHT22;16450;50.288;10.966;2023-04-25T14:42:40;11.40;94.80
29501;DHT22;16450;50.288;10.966;2023-04-25T14:45:42;11.40;94.50
29501;DHT22;16450;50.288;10.966;2023-04-25T14:48:44;11.50;94.50
29501;DHT22;16450;50.288;10.966;2023-04-25T14:51:46;11.50;94.10
29501;DHT22;16450;50.288;10.966;2023-04-25T14:55:09;11.60;93.40
29501;DHT22;16450;50.288;10.966;2023-04-25T14:58:11;11.60;91.30
29501;DHT22;16450;50.288;10.966;2023-04-25T15:01:14;11.50;93.60
29501;DHT22;16450;50.288;10.966;2023-04-25T15:04:16;11.60;93.40
29501;DHT22;16450;50.288;10.966;2023-04-25T15:07:19;11.60;93.50
29501;DHT22;16450;50.288;10.966;2023-04-25T15:10:22;11.70;93.60
29501;DHT22;16450;50.288;10.966;2023-04-25T15:13:25;11.80;93.10
29501;DHT22;16450;50.288;10.966;2023-04-25T15:16:27;11.80;92.90
29501;DHT22;16450;50.288;10.966;2023-04-25T15:19:29;11.80;92.90
29501;DHT22;16450;50.288;10.966;2023-04-25T15:22:32;11.80;92.60
29501;DHT22;16450;50.288;10.966;2023-04-25T15:25:34;11.70;92.40
29501;DHT22;16450;50.288;10.966;2023-04-25T15:28:36;11.60;92.50
29501;DHT22;16450;50.288;10.966;2023-04-25T15:31:38;11.60;92.30
29501;DHT22;16450;50.288;10.966;2023-04-25T15:34:39;11.50;92.50
29501;DHT22;16450;50.288;10.966;2023-04-25T15:37:41;11.40;92.30
29501;DHT22;16450;50.288;10.966;2023-04-25T15:40:43;11.30;92.00
29501;DHT22;16450;50.288;10.966;2023-04-25T15:43:47;11.30;91.90
29501;DHT22;16450;50.288;10.966;2023-04-25T15:46:50;11.20;91.40
29501;DHT22;16450;50.288;10.966;2023-04-25T15:49:55;11.10;91.90
29501;DHT22;16450;50.288;10.966;2023-04-25T15:52:57;11.00;91.90
29501;DHT22;16450;50.288;10.966;2023-04-25T15:56:00;11.00;91.90
29501;DHT22;16450;50.288;10.966;2023-04-25T15:59:02;10.90;91.80
29501;DHT22;16450;50.288;10.966;2023-04-25T16:02:05;10.90;91.70
29501;DHT22;16450;50.288;10.966;2023-04-25T16:05:08;10.90;91.70
29501;DHT22;16450;50.288;10.966;2023-04-25T16:08:12;10.90;91.60
29501;DHT22;16450;50.288;10.966;2023-04-25T16:11:14;10.90;91.70
29501;DHT22;16450;50.288;10.966;2023-04-25T16:14:16;10.80;91.50
29501;DHT22;16450;50.288;10.966;2023-04-25T16:17:17;10.90;91.60
29501;DHT22;16450;50.288;10.966;2023-04-25T16:20:19;10.90;91.50
29501;DHT22;16450;50.288;10.966;2023-04-25T16:23:22;10.80;91.60
29501;DHT22;16450;50.288;10.966;2023-04-25T16:26:24;10.80;91.50
29501;DHT22;16450;50.288;10.966;2023-04-25T16:29:25;10.80;91.50
29501;DHT22;16450;50.288;10.966;2023-04-25T16:32:28;10.70;91.50
29501;DHT22;16450;50.288;10.966;2023-04-25T16:39:16;10.70;88.90
29501;DHT22;16450;50.288;10.966;2023-04-25T16:42:18;10.60;91.60
29501;DHT22;16450;50.288;10.966;2023-04-25T16:45:20;10.60;91.40
29501;DHT22;16450;50.288;10.966;2023-04-25T16:48:22;10.60;91.20
29501;DHT22;16450;50.288;10.966;2023-04-25T16:51:25;10.50;91.00
29501;DHT22;16450;50.288;10.966;2023-04-25T16:54:28;10.40;91.10
29501;DHT22;16450;50.288;10.966;2023-04-25T16:57:30;10.40;91.10
29501;DHT22;16450;50.288;10.966;2023-04-25T17:00:33;10.20;91.10
29501;DHT22;16450;50.288;10.966;2023-04-25T17:03:35;10.20;90.60
29501;DHT22;16450;50.288;10.966;2023-04-25T17:06:38;10.20;90.60
29501;DHT22;16450;50.288;10.966;2023-04-25T17:09:40;10.10;90.70
29501;DHT22;16450;50.288;10.966;2023-04-25T17:12:41;10.00;90.90
29501;DHT22;16450;50.288;10.966;2023-04-25T17:15:43;10.00;90.80
29501;DHT22;16450;50.288;10.966;2023-04-25T17:18:46;9.90;90.80
29501;DHT22;16450;50.288;10.966;2023-04-25T17:21:47;9.80;90.80
29501;DHT22;16450;50.288;10.966;2023-04-25T17:24:50;9.80;90.90
29501;DHT22;16450;50.288;10.966;2023-04-25T17:27:52;9.70;90.90
29501;DHT22;16450;50.288;10.966;2023-04-25T17:30:54;9.70;90.80
29501;DHT22;16450;50.288;10.966;2023-04-25T17:33:58;9.60;90.70
29501;DHT22;16450;50.288;10.966;2023-04-25T17:37:01;9.40;90.70
29501;DHT22;16450;50.288;10.966;2023-04-25T17:40:03;9.60;90.90
29501;DHT22;16450;50.288;10.966;2023-04-25T17:43:05;9.50;90.90
29501;DHT22;16450;50.288;10.966;2023-04-25T17:46:07;9.50;90.90
29501;DHT22;16450;50.288;10.966;2023-04-25T17:49:09;9.50;90.90
29501;DHT22;16450;50.288;10.966;2023-04-25T17:52:12;9.40;90.90
29501;DHT22;16450;50.288;10.966;2023-04-25T17:55:14;9.40;90.90
29501;DHT22;16450;50.288;10.966;2023-04-25T17:58:16;9.40;90.90
29501;DHT22;16450;50.288;10.966;2023-04-25T18:01:18;9.30;90.90
29501;DHT22;16450;50.288;10.966;2023-04-25T18:04:19;9.30;91.10
29501;DHT22;16450;50.288;10.966;2023-04-25T18:07:22;9.30;91.00
29501;DHT22;16450;50.288;10.966;2023-04-25T18:10:24;9.20;91.00
29501;DHT22;16450;50.288;10.966;2023-04-25T18:13:26;9.30;91.10
29501;DHT22;16450;50.288;10.966;2023-04-25T18:16:28;9.20;91.20
29501;DHT22;16450;50.288;10.966;2023-04-25T18:19:30;9.20;91.30
29501;DHT22;16450;50.288;10.966;2023-04-25T18:22:32;9.10;91.30
29501;DHT22;16450;50.288;10.966;2023-04-25T18:25:34;9.10;91.50
29501;DHT22;16450;50.288;10.966;2023-04-25T18:28:37;9.10;91.60
29501;DHT22;16450;50.288;10.966;2023-04-25T18:31:40;9.10;91.80
29501;DHT22;16450;50.288;10.966;2023-04-25T18:34:42;9.00;91.70
29501;DHT22;16450;50.288;10.966;2023-04-25T18:37:46;8.90;91.90
29501;DHT22;16450;50.288;10.966;2023-04-25T18:40:49;9.00;92.10
29501;DHT22;16450;50.288;10.966;2023-04-25T18:44:03;9.00;92.50
29501;DHT22;16450;50.288;10.966;2023-04-25T18:47:09;8.90;92.10
29501;DHT22;16450;50.288;10.966;2023-04-25T18:50:11;8.90;91.80
29501;DHT22;16450;50.288;10.966;2023-04-25T18:53:13;8.90;92.30
29501;DHT22;16450;50.288;10.966;2023-04-25T18:56:15;8.80;92.30
29501;DHT22;16450;50.288;10.966;2023-04-25T18:59:19;8.80;92.30
29501;DHT22;16450;50.288;10.966;2023-04-25T19:02:21;8.80;92.40
29501;DHT22;16450;50.288;10.966;2023-04-25T19:05:23;8.80;92.50
29501;DHT22;16450;50.288;10.966;2023-04-25T19:08:25;8.70;92.50
29501;DHT22;16450;50.288;10.966;2023-04-25T19:11:27;8.70;92.60
29501;DHT22;16450;50.288;10.966;2023-04-25T19:14:30;8.70;92.70